createdAt,value
2023-08-14T00:01:32.074Z,100918.31
2023-08-14T00:06:34.986Z,100920.19
2023-08-14T00:11:37.859Z,100914.52
2023-08-14T00:16:40.772Z,100911.17
2023-08-14T00:21:43.746Z,100907.82
2023-08-14T00:26:46.713Z,100901.66
2023-08-14T00:31:49.543Z,100902.50
2023-08-14T00:36:52.675Z,100897.48
2023-08-14T00:41:55.937Z,100900.17
2023-08-14T00:46:58.946Z,100908.88
2023-08-14T00:52:01.911Z,100914.73
2023-08-14T00:57:05.056Z,100915.20
2023-08-14T01:02:08.037Z,100929.66
2023-08-14T01:07:11.059Z,100937.11
2023-08-14T01:13:01.481Z,100940.29
2023-08-14T01:18:05.000Z,100940.56
2023-08-14T01:23:34.996Z,100952.40
2023-08-14T01:28:37.958Z,100949.79
2023-08-14T01:33:40.834Z,100949.08
2023-08-14T01:38:57.955Z,100954.40
2023-08-14T01:44:00.929Z,100959.85
2023-08-14T01:49:04.156Z,100961.02
2023-08-14T01:54:07.421Z,100972.89
2023-08-14T01:59:10.420Z,100974.53
2023-08-14T02:04:13.360Z,100962.56
2023-08-14T02:09:16.239Z,100951.15
2023-08-14T02:14:19.357Z,100941.70
2023-08-14T02:19:22.362Z,100935.09
2023-08-14T02:24:25.282Z,100933.20
2023-08-14T02:29:28.103Z,100938.41
2023-08-14T02:34:42.974Z,100943.44
2023-08-14T02:39:46.207Z,100950.95
2023-08-14T02:44:52.183Z,100958.34
2023-08-14T02:49:55.376Z,100956.79
2023-08-14T02:54:58.515Z,100949.34
2023-08-14T03:00:01.391Z,100940.68
2023-08-14T03:05:05.086Z,100948.03
2023-08-14T03:10:08.407Z,100949.16
2023-08-14T03:15:11.584Z,100950.41
2023-08-14T03:20:14.757Z,100953.59
2023-08-14T03:25:17.804Z,100962.52
2023-08-14T03:30:20.670Z,100961.18
2023-08-14T03:35:23.489Z,100957.36
2023-08-14T03:40:26.450Z,100960.91
2023-08-14T03:45:29.432Z,100965.71
2023-08-14T03:50:34.653Z,100973.36
2023-08-14T03:55:37.547Z,100971.25
2023-08-14T04:00:40.443Z,100966.26
2023-08-14T04:05:43.503Z,100964.56
2023-08-14T04:10:46.659Z,100972.96
2023-08-14T04:15:49.668Z,100968.48
2023-08-14T04:20:52.601Z,100967.81
2023-08-14T04:25:55.534Z,100970.58
2023-08-14T04:30:58.630Z,100973.55
2023-08-14T04:36:01.495Z,100977.39
2023-08-14T04:41:04.353Z,100981.82
2023-08-14T04:46:12.624Z,100984.46
2023-08-14T04:51:15.847Z,100994.58
2023-08-14T04:56:18.727Z,101004.27
2023-08-14T05:01:21.753Z,101012.73
2023-08-14T05:06:24.893Z,101016.52
2023-08-14T05:11:27.758Z,101004.20
2023-08-14T05:16:30.778Z,101007.64
2023-08-14T05:21:33.903Z,101001.68
2023-08-14T05:26:36.889Z,101003.73
2023-08-14T05:31:39.846Z,100994.42
2023-08-14T05:36:43.014Z,100999.45
2023-08-14T05:41:45.913Z,101001.27
2023-08-14T05:46:49.810Z,101000.20
2023-08-14T05:51:53.162Z,101011.23
2023-08-14T05:56:56.059Z,101015.01
2023-08-14T06:02:00.523Z,101012.60
2023-08-14T06:07:05.957Z,101011.79
2023-08-14T06:12:09.198Z,101018.16
2023-08-14T06:17:12.095Z,101028.77
2023-08-14T06:22:17.267Z,101025.81
2023-08-14T06:27:20.495Z,101026.31
2023-08-14T06:32:23.392Z,101026.30
2023-08-14T06:37:26.297Z,101031.92
2023-08-14T06:42:29.408Z,101028.66
2023-08-14T06:47:45.719Z,101032.70
2023-08-14T06:52:48.949Z,101039.72
2023-08-14T06:57:51.938Z,101040.61
2023-08-14T07:02:54.997Z,101040.29
2023-08-14T07:07:58.114Z,101038.56
2023-08-14T07:13:01.029Z,101039.20
2023-08-14T07:18:04.333Z,101032.85
2023-08-14T07:23:07.243Z,101033.80
2023-08-14T07:28:10.179Z,101038.50
2023-08-14T07:33:15.047Z,101039.20
2023-08-14T07:38:18.168Z,101044.21
2023-08-14T07:43:21.091Z,101049.27
2023-08-14T07:48:24.047Z,101055.56
2023-08-14T07:53:26.938Z,101060.59
2023-08-14T07:58:29.855Z,101058.94
2023-08-14T08:03:32.777Z,101059.75
2023-08-14T08:08:35.696Z,101064.94
2023-08-14T08:13:38.593Z,101069.21
2023-08-14T08:18:41.512Z,101069.90
2023-08-14T08:23:44.536Z,101069.08
2023-08-14T08:28:48.858Z,101069.64
2023-08-14T08:33:51.964Z,101074.75
2023-08-14T08:38:55.017Z,101080.46
2023-08-14T08:44:45.158Z,101088.36
2023-08-14T08:49:48.150Z,101089.94
2023-08-14T08:54:51.038Z,101086.54
2023-08-14T08:59:59.355Z,101088.24
2023-08-14T09:05:16.211Z,101088.59
2023-08-14T09:10:20.275Z,101090.73
2023-08-14T09:15:25.717Z,101077.64
2023-08-14T09:20:30.929Z,101073.34
2023-08-14T09:25:34.330Z,101069.23
2023-08-14T09:30:38.055Z,101062.84
2023-08-14T09:35:42.709Z,101062.60
2023-08-14T09:40:45.775Z,101062.89
2023-08-14T09:45:50.546Z,101052.32
2023-08-14T09:50:53.674Z,101043.05
2023-08-14T09:55:58.313Z,101039.77
2023-08-14T10:01:01.243Z,101037.80
2023-08-14T10:06:06.967Z,101032.45
2023-08-14T10:11:19.594Z,101032.88
2023-08-14T10:16:25.382Z,101032.77
2023-08-14T10:21:32.410Z,101038.77
2023-08-14T10:26:35.633Z,101042.40
2023-08-14T10:31:38.527Z,101041.24
2023-08-14T10:36:41.577Z,101040.96
2023-08-14T10:41:46.720Z,101035.11
2023-08-14T10:46:49.859Z,101033.52
2023-08-14T10:52:01.212Z,101031.08
2023-08-14T10:57:07.545Z,101031.21
2023-08-14T11:02:10.927Z,101027.68
2023-08-14T11:07:14.136Z,101027.20
2023-08-14T11:12:19.868Z,101028.85
2023-08-14T11:17:28.410Z,101027.20
2023-08-14T11:22:34.435Z,101025.16
2023-08-14T11:27:37.768Z,101016.95
2023-08-14T11:32:42.447Z,101018.02
2023-08-14T11:37:59.967Z,101011.83
2023-08-14T11:43:11.011Z,101009.21
2023-08-14T11:48:27.863Z,101003.19
2023-08-14T11:53:32.951Z,101006.97
2023-08-14T11:58:42.071Z,101005.64
2023-08-14T12:03:49.496Z,101003.27
2023-08-14T12:08:52.438Z,100998.14
2023-08-14T12:13:55.446Z,100998.16
2023-08-14T12:18:58.577Z,100996.27
2023-08-14T12:24:01.884Z,100986.98
2023-08-14T12:29:07.656Z,100982.70
2023-08-14T12:34:14.931Z,100979.80
2023-08-14T12:39:17.833Z,100975.78
2023-08-14T12:44:20.734Z,100969.95
2023-08-14T12:49:24.038Z,100970.81
2023-08-14T12:54:29.530Z,100966.67
2023-08-14T12:59:32.437Z,100964.65
2023-08-14T13:04:36.447Z,100957.45
2023-08-14T13:09:39.937Z,100960.27
2023-08-14T13:14:42.863Z,100961.63
2023-08-14T13:19:45.791Z,100960.05
2023-08-14T13:29:56.625Z,100948.23
2023-08-14T13:35:02.016Z,100944.55
2023-08-14T13:40:08.052Z,100938.73
2023-08-14T13:45:18.169Z,100936.87
2023-08-14T13:50:34.931Z,100941.34
2023-08-14T13:55:38.222Z,100941.98
2023-08-14T14:00:43.579Z,100935.37
2023-08-14T14:05:46.580Z,100930.05
2023-08-14T14:10:49.572Z,100927.14
2023-08-14T14:15:54.904Z,100928.74
2023-08-14T14:20:58.399Z,100932.66
2023-08-14T14:26:03.711Z,100925.38
2023-08-14T14:31:11.393Z,100925.85
2023-08-14T14:36:15.425Z,100925.70
2023-08-14T14:41:18.320Z,100922.25
2023-08-14T14:46:21.281Z,100918.94
2023-08-14T14:51:24.468Z,100911.21
2023-08-14T14:56:30.490Z,100908.05
2023-08-14T15:01:33.549Z,100906.01
2023-08-14T15:06:36.735Z,100910.02
2023-08-14T15:11:39.633Z,100902.65
2023-08-14T15:16:44.120Z,100900.70
2023-08-14T15:21:47.010Z,100898.18
2023-08-14T15:26:52.057Z,100896.64
2023-08-14T15:31:55.301Z,100893.30
2023-08-14T15:36:58.225Z,100884.88
2023-08-14T15:42:01.437Z,100880.39
2023-08-14T15:47:04.556Z,100882.70
2023-08-14T15:52:07.478Z,100882.74
2023-08-14T15:57:10.815Z,100884.75
2023-08-14T16:02:13.880Z,100884.77
2023-08-14T16:07:19.809Z,100875.89
2023-08-14T16:12:24.499Z,100875.56
2023-08-14T16:17:28.081Z,100875.77
2023-08-14T16:22:33.264Z,100871.27
2023-08-14T16:27:37.832Z,100878.30
2023-08-14T16:32:41.215Z,100874.05
2023-08-14T16:37:44.228Z,100875.55
2023-08-14T16:42:47.680Z,100875.58
2023-08-14T16:47:51.578Z,100874.84
2023-08-14T16:52:55.128Z,100876.73
2023-08-14T16:57:58.359Z,100872.50
2023-08-14T17:03:03.778Z,100878.69
2023-08-14T17:08:06.860Z,100884.50
2023-08-14T17:13:09.679Z,100880.43
2023-08-14T17:18:12.575Z,100885.52
2023-08-14T17:23:19.933Z,100890.20
2023-08-14T17:28:25.108Z,100892.02
2023-08-14T17:33:31.066Z,100894.69
2023-08-14T17:38:34.835Z,100894.48
2023-08-14T17:43:37.687Z,100891.52
2023-08-14T17:48:40.629Z,100892.41
2023-08-14T17:53:43.591Z,100897.15
2023-08-14T17:58:46.910Z,100906.34
2023-08-14T18:03:50.026Z,100905.88
2023-08-14T18:08:53.224Z,100902.55
2023-08-14T18:13:56.176Z,100899.09
2023-08-14T18:19:22.586Z,100898.80
2023-08-14T18:24:22.380Z,100897.86
2023-08-14T18:29:25.245Z,100896.95
2023-08-14T18:34:28.069Z,100908.83
2023-08-14T18:39:31.010Z,100911.45
2023-08-14T18:44:33.924Z,100911.73
2023-08-14T18:49:37.049Z,100913.10
2023-08-14T18:54:43.026Z,100916.86
2023-08-14T18:59:47.636Z,100924.06
2023-08-14T19:04:50.667Z,100936.50
2023-08-14T19:09:57.077Z,100936.38
2023-08-14T19:15:00.020Z,100933.91
2023-08-14T19:20:03.533Z,100932.65
2023-08-14T19:25:07.080Z,100930.48
2023-08-14T19:30:10.594Z,100932.25
2023-08-14T19:35:13.618Z,100930.08
2023-08-14T19:40:16.540Z,100931.55
2023-08-14T19:45:19.641Z,100933.79
2023-08-14T19:50:22.640Z,100928.98
2023-08-14T19:55:26.653Z,100935.48
2023-08-14T20:00:29.619Z,100938.20
2023-08-14T20:05:32.605Z,100941.64
2023-08-14T20:10:35.618Z,100942.31
2023-08-14T20:15:46.046Z,100946.15
2023-08-14T20:20:49.536Z,100947.83
2023-08-14T20:25:52.836Z,100953.74
2023-08-14T20:30:55.824Z,100953.88
2023-08-14T20:35:58.821Z,100954.58
2023-08-14T20:41:01.736Z,100955.28
2023-08-14T20:46:04.682Z,100960.95
2023-08-14T20:51:07.652Z,100961.31
2023-08-14T20:56:10.713Z,100965.04
2023-08-14T21:01:15.278Z,100966.20
2023-08-14T21:06:18.764Z,100973.39
2023-08-14T21:11:21.941Z,100963.64
2023-08-14T21:16:24.819Z,100965.21
2023-08-14T21:21:27.782Z,100968.70
2023-08-14T21:26:31.369Z,100968.11
2023-08-14T21:31:34.664Z,100970.65
2023-08-14T21:36:39.746Z,100966.02
2023-08-14T21:41:42.821Z,100970.08
2023-08-14T21:46:46.875Z,100969.55
2023-08-14T21:51:49.934Z,100970.23
2023-08-14T21:56:53.258Z,100965.80
2023-08-14T22:01:56.257Z,100962.64
2023-08-14T22:06:59.171Z,100959.90
2023-08-14T22:12:02.027Z,100956.86
2023-08-14T22:17:05.142Z,100958.06
2023-08-14T22:22:08.104Z,100961.84
2023-08-14T22:27:11.112Z,100954.55
2023-08-14T22:32:14.133Z,100949.98
2023-08-14T22:37:16.962Z,100950.70
2023-08-14T22:42:20.172Z,100951.16
2023-08-14T22:47:23.324Z,100952.80
2023-08-14T22:52:26.504Z,100947.64
2023-08-14T22:57:29.412Z,100950.79
2023-08-14T23:02:32.352Z,100948.75
2023-08-14T23:07:35.957Z,100949.66
2023-08-14T23:12:38.798Z,100947.30
2023-08-14T23:17:41.715Z,100944.95
2023-08-14T23:22:44.674Z,100948.44
2023-08-14T23:27:47.592Z,100953.42
2023-08-14T23:32:50.766Z,100960.48
2023-08-14T23:37:53.853Z,100965.13
2023-08-14T23:42:56.902Z,100965.55
2023-08-14T23:47:59.927Z,100962.05
2023-08-14T23:53:02.975Z,100960.04
2023-08-14T23:58:05.928Z,100962.76
